createdAt,value
2018-04-10T00:00:06.675Z,40.65
2018-04-10T00:01:06.683Z,40.75
2018-04-10T00:02:06.671Z,40.78
2018-04-10T00:03:06.639Z,40.74
2018-04-10T00:04:06.653Z,40.71
2018-04-10T00:05:06.618Z,40.71
2018-04-10T00:06:06.654Z,40.76
2018-04-10T00:07:06.790Z,40.74
2018-04-10T00:08:06.649Z,40.78
2018-04-10T00:09:06.633Z,40.8
2018-04-10T00:10:06.628Z,40.68
2018-04-10T00:11:06.868Z,40.71
2018-04-10T00:12:06.647Z,40.74
2018-04-10T00:13:06.657Z,40.79
2018-04-10T00:14:06.664Z,40.74
2018-04-10T00:15:06.792Z,40.78
2018-04-10T00:16:06.649Z,40.82
2018-04-10T00:17:06.677Z,40.76
2018-04-10T00:18:06.705Z,40.83
2018-04-10T00:19:06.743Z,40.72
2018-04-10T00:20:06.662Z,40.77
2018-04-10T00:21:06.647Z,40.9
2018-04-10T00:22:06.767Z,40.75
2018-04-10T00:23:06.644Z,40.83
2018-04-10T00:24:06.654Z,40.8
2018-04-10T00:25:06.648Z,40.73
2018-04-10T00:26:06.628Z,40.81
2018-04-10T00:27:06.715Z,40.78
2018-04-10T00:28:06.671Z,40.74
2018-04-10T00:29:06.623Z,40.83
2018-04-10T00:30:06.619Z,40.82
2018-04-10T00:31:06.672Z,40.75
2018-04-10T00:32:06.749Z,40.78
2018-04-10T00:33:06.630Z,40.85
2018-04-10T00:34:06.649Z,40.75
2018-04-10T00:35:06.631Z,40.84
2018-04-10T00:36:06.613Z,40.79
2018-04-10T00:37:06.666Z,40.79
2018-04-10T00:38:06.678Z,40.83
2018-04-10T00:39:06.623Z,40.82
2018-04-10T00:40:06.612Z,40.75
2018-04-10T00:41:06.650Z,40.76
2018-04-10T00:42:06.635Z,40.85
2018-04-10T00:43:06.666Z,40.8
2018-04-10T00:44:06.633Z,40.86
2018-04-10T00:45:06.659Z,40.78
2018-04-10T00:46:06.679Z,40.77
2018-04-10T00:47:06.795Z,40.76
2018-04-10T00:48:06.595Z,40.84
2018-04-10T00:49:06.611Z,40.73
2018-04-10T00:50:06.757Z,40.92
2018-04-10T00:51:06.634Z,40.86
2018-04-10T00:52:06.696Z,40.72
2018-04-10T00:53:06.636Z,40.86
2018-04-10T00:54:06.674Z,40.92
2018-04-10T00:55:06.667Z,40.81
2018-04-10T00:56:06.708Z,40.79
2018-04-10T00:57:06.622Z,40.89
2018-04-10T00:58:06.646Z,40.78
2018-04-10T00:59:06.647Z,40.87
2018-04-10T01:00:06.640Z,40.91
2018-04-10T01:01:06.677Z,40.77
2018-04-10T01:02:06.664Z,40.84
2018-04-10T01:03:06.654Z,40.83
2018-04-10T01:04:06.648Z,40.76
2018-04-10T01:05:06.459Z,40.85
2018-04-10T01:06:06.705Z,40.87
2018-04-10T01:07:06.664Z,40.82
2018-04-10T01:08:06.685Z,40.79
2018-04-10T01:09:06.766Z,40.87
2018-04-10T01:10:06.716Z,40.76
2018-04-10T01:11:06.657Z,40.83
2018-04-10T01:12:06.858Z,40.82
2018-04-10T01:13:06.748Z,40.75
2018-04-10T01:14:06.787Z,40.89
2018-04-10T01:15:06.620Z,40.89
2018-04-10T01:16:06.644Z,40.76
2018-04-10T01:17:06.735Z,40.84
2018-04-10T01:18:06.654Z,40.84
2018-04-10T01:19:06.617Z,40.81
2018-04-10T01:20:06.614Z,40.8
2018-04-10T01:21:06.662Z,40.86
2018-04-10T01:22:06.659Z,40.7
2018-04-10T01:23:06.677Z,40.92
2018-04-10T01:24:06.627Z,40.87
2018-04-10T01:25:06.631Z,40.87
2018-04-10T01:26:06.652Z,40.9
2018-04-10T01:27:06.646Z,40.82
2018-04-10T01:28:06.631Z,40.72
2018-04-10T01:29:06.649Z,40.85
2018-04-10T01:30:06.614Z,40.9
2018-04-10T01:31:06.664Z,40.77
2018-04-10T01:32:06.609Z,40.88
2018-04-10T01:33:06.661Z,40.82
2018-04-10T01:34:06.634Z,40.76
2018-04-10T01:35:06.756Z,40.89
2018-04-10T01:36:06.624Z,40.88
2018-04-10T01:37:06.649Z,40.77
2018-04-10T01:38:06.645Z,40.88
2018-04-10T01:39:06.624Z,40.88
2018-04-10T01:40:06.622Z,40.8
2018-04-10T01:41:06.622Z,40.92
2018-04-10T01:42:06.694Z,40.89
2018-04-10T01:43:06.628Z,40.79
2018-04-10T01:44:06.607Z,40.84
2018-04-10T01:45:06.697Z,40.95
2018-04-10T01:46:06.599Z,40.82
2018-04-10T01:47:06.618Z,40.83
2018-04-10T01:48:06.645Z,40.9
2018-04-10T01:49:06.685Z,40.84
2018-04-10T01:50:06.835Z,40.91
2018-04-10T01:51:06.696Z,40.94
2018-04-10T01:52:06.627Z,40.84
2018-04-10T01:53:06.600Z,40.83
2018-04-10T01:54:06.585Z,40.93
2018-04-10T01:55:06.602Z,40.84
2018-04-10T01:56:06.602Z,40.9
2018-04-10T01:57:06.623Z,40.88
2018-04-10T01:58:06.652Z,40.84
2018-04-10T01:59:06.641Z,40.93
2018-04-10T02:00:06.637Z,40.99
2018-04-10T02:01:06.585Z,40.88
2018-04-10T02:02:06.755Z,40.97
2018-04-10T02:03:06.607Z,40.93
2018-04-10T02:04:06.589Z,40.86
2018-04-10T02:05:06.600Z,40.9
2018-04-10T02:06:06.618Z,40.83
2018-04-10T02:07:06.641Z,40.72
2018-04-10T02:08:06.636Z,40.88
2018-04-10T02:09:06.601Z,40.87
2018-04-10T02:10:06.604Z,40.78
2018-04-10T02:11:06.652Z,40.9
2018-04-10T02:12:06.605Z,40.99
2018-04-10T02:13:06.590Z,40.92
2018-04-10T02:14:06.614Z,40.9
2018-04-10T02:15:06.596Z,40.89
2018-04-10T02:16:06.600Z,40.86
2018-04-10T02:17:06.594Z,40.85
2018-04-10T02:18:06.738Z,40.94
2018-04-10T02:19:06.586Z,40.84
2018-04-10T02:20:06.601Z,40.97
2018-04-10T02:21:06.644Z,40.89
2018-04-10T02:22:06.636Z,40.84
2018-04-10T02:23:06.613Z,40.88
2018-04-10T02:24:06.585Z,41.02
2018-04-10T02:25:06.853Z,40.85
2018-04-10T02:26:06.597Z,40.9
2018-04-10T02:27:06.628Z,40.97
2018-04-10T02:28:06.631Z,40.83
2018-04-10T02:29:06.612Z,40.9
2018-04-10T02:30:06.728Z,40.87
2018-04-10T02:31:06.582Z,40.84
2018-04-10T02:32:06.648Z,40.92
2018-04-10T02:33:06.632Z,40.97
2018-04-10T02:34:06.644Z,40.83
2018-04-10T02:35:06.625Z,40.89
2018-04-10T02:36:06.598Z,40.99
2018-04-10T02:37:06.851Z,40.88
2018-04-10T02:38:06.625Z,40.92
2018-04-10T02:39:06.615Z,40.94
2018-04-10T02:40:06.650Z,40.85
2018-04-10T02:41:06.587Z,40.99
2018-04-10T02:42:06.637Z,40.97
2018-04-10T02:43:06.615Z,40.82
2018-04-10T02:44:06.612Z,40.95
2018-04-10T02:45:06.651Z,40.92
2018-04-10T02:46:06.609Z,40.86
2018-04-10T02:47:06.603Z,40.86
2018-04-10T02:48:06.665Z,40.94
2018-04-10T02:49:06.597Z,40.89
2018-04-10T02:50:06.595Z,40.93
2018-04-10T02:51:06.635Z,41
2018-04-10T02:52:06.571Z,40.83
2018-04-10T02:53:06.595Z,41.02
2018-04-10T02:54:06.595Z,40.91
2018-04-10T02:55:06.588Z,40.83
2018-04-10T02:56:06.615Z,40.93
2018-04-10T02:57:06.595Z,40.91
2018-04-10T02:58:06.765Z,40.87
2018-04-10T02:59:06.612Z,40.93
2018-04-10T03:00:06.571Z,40.92
2018-04-10T03:01:06.613Z,40.84
2018-04-10T03:02:06.571Z,40.96
2018-04-10T03:03:06.614Z,40.91
2018-04-10T03:04:06.617Z,40.82
2018-04-10T03:05:06.601Z,40.98
2018-04-10T03:06:06.635Z,40.95
2018-04-10T03:07:06.577Z,40.84
2018-04-10T03:08:06.579Z,40.94
2018-04-10T03:09:06.571Z,40.91
2018-04-10T03:10:06.692Z,40.85
2018-04-10T03:11:06.671Z,40.96
2018-04-10T03:12:06.622Z,40.91
2018-04-10T03:13:06.585Z,40.88
2018-04-10T03:14:06.661Z,40.95
2018-04-10T03:15:06.580Z,41
2018-04-10T03:16:06.596Z,40.84
2018-04-10T03:17:06.565Z,41
2018-04-10T03:18:06.593Z,40.94
2018-04-10T03:19:06.616Z,40.9
2018-04-10T03:20:06.621Z,40.95
2018-04-10T03:21:06.595Z,40.9
2018-04-10T03:22:06.636Z,40.81
2018-04-10T03:23:06.561Z,41
2018-04-10T03:24:06.629Z,40.98
2018-04-10T03:25:06.579Z,40.88
2018-04-10T03:26:06.595Z,41
2018-04-10T03:27:06.586Z,41.03
2018-04-10T03:28:06.604Z,40.85
2018-04-10T03:29:06.786Z,40.91
2018-04-10T03:30:06.643Z,40.95
2018-04-10T03:31:06.581Z,40.83
2018-04-10T03:32:06.746Z,40.99
2018-04-10T03:33:06.577Z,41.01
2018-04-10T03:34:06.592Z,40.88
2018-04-10T03:35:06.590Z,40.99
2018-04-10T03:36:06.563Z,40.96
2018-04-10T03:37:06.581Z,40.83
2018-04-10T03:38:06.581Z,40.91
2018-04-10T03:39:06.588Z,40.96
2018-04-10T03:40:06.559Z,40.89
2018-04-10T03:41:06.589Z,40.9
2018-04-10T03:42:06.605Z,40.99
2018-04-10T03:43:06.731Z,40.84
2018-04-10T03:44:06.731Z,40.93
2018-04-10T03:45:06.595Z,40.99
2018-04-10T03:46:06.620Z,40.91
2018-04-10T03:47:06.614Z,40.88
2018-04-10T03:48:06.663Z,40.91
2018-04-10T03:49:06.595Z,40.76
2018-04-10T03:50:06.562Z,40.88
2018-04-10T03:51:06.558Z,40.83
2018-04-10T03:52:06.571Z,40.76
2018-04-10T03:53:06.555Z,40.8
2018-04-10T03:54:06.630Z,40.77
2018-04-10T03:55:06.572Z,40.7
2018-04-10T03:56:06.598Z,40.76
2018-04-10T03:57:06.633Z,40.7
2018-04-10T03:58:06.581Z,40.69
2018-04-10T03:59:06.700Z,40.7
2018-04-10T04:00:06.595Z,40.74
2018-04-10T04:01:06.634Z,40.65
2018-04-10T04:02:06.639Z,40.71
2018-04-10T04:03:06.600Z,40.7
2018-04-10T04:04:06.589Z,40.63
2018-04-10T04:05:06.563Z,40.71
2018-04-10T04:06:06.562Z,40.66
2018-04-10T04:07:06.580Z,40.59
2018-04-10T04:08:06.581Z,40.51
2018-04-10T04:09:06.579Z,40.6
2018-04-10T04:10:06.573Z,40.5
2018-04-10T04:11:06.560Z,40.52
2018-04-10T04:12:06.577Z,40.53
2018-04-10T04:13:06.606Z,40.51
2018-04-10T04:14:06.569Z,40.43
2018-04-10T04:15:06.597Z,40.45
2018-04-10T04:16:06.702Z,40.37
2018-04-10T04:17:06.570Z,40.33
2018-04-10T04:18:06.567Z,40.44
2018-04-10T04:19:06.665Z,40.4
2018-04-10T04:20:06.621Z,40.46
2018-04-10T04:21:06.573Z,40.48
2018-04-10T04:22:06.585Z,40.45
2018-04-10T04:23:06.599Z,40.38
2018-04-10T04:24:06.574Z,40.42
2018-04-10T04:25:06.806Z,40.43
2018-04-10T04:26:06.649Z,40.48
2018-04-10T04:27:06.570Z,40.47
2018-04-10T04:28:06.568Z,40.34
2018-04-10T04:29:06.612Z,40.45
2018-04-10T04:30:06.577Z,40.38
2018-04-10T04:31:06.746Z,40.36
2018-04-10T04:32:06.615Z,40.49
2018-04-10T04:33:06.568Z,40.39
2018-04-10T04:34:06.576Z,40.48
2018-04-10T04:35:06.705Z,40.47
2018-04-10T04:36:06.579Z,40.49
2018-04-10T04:37:06.705Z,40.43
2018-04-10T04:38:06.579Z,40.48
2018-04-10T04:39:06.584Z,40.41
2018-04-10T04:40:06.567Z,40.36
2018-04-10T04:41:06.551Z,40.51
2018-04-10T04:42:06.561Z,40.44
2018-04-10T04:43:06.699Z,40.37
2018-04-10T04:44:06.636Z,40.5
2018-04-10T04:45:06.555Z,40.46
2018-04-10T04:46:06.597Z,40.43
2018-04-10T04:47:06.619Z,40.45
2018-04-10T04:48:06.529Z,40.43
2018-04-10T04:49:06.657Z,40.43
2018-04-10T04:50:06.558Z,40.47
2018-04-10T04:51:06.604Z,40.49
2018-04-10T04:52:06.745Z,40.38
2018-04-10T04:53:06.611Z,40.41
2018-04-10T04:54:06.559Z,40.47
2018-04-10T04:55:06.559Z,40.47
2018-04-10T04:56:06.580Z,40.36
2018-04-10T04:57:06.566Z,40.47
2018-04-10T04:58:06.611Z,40.36
2018-04-10T04:59:06.549Z,40.44
2018-04-10T05:00:06.568Z,40.42
2018-04-10T05:01:06.577Z,40.4
2018-04-10T05:02:06.562Z,40.47
2018-04-10T05:03:06.543Z,40.44
2018-04-10T05:04:06.533Z,40.37
2018-04-10T05:05:06.568Z,40.44
2018-04-10T05:06:06.587Z,40.49
2018-04-10T05:07:06.651Z,40.39
2018-04-10T05:08:06.570Z,40.44
2018-04-10T05:09:06.572Z,40.43
2018-04-10T05:10:06.546Z,40.42
2018-04-10T05:11:06.645Z,40.47
2018-04-10T05:12:06.688Z,40.42
2018-04-10T05:13:06.621Z,40.44
2018-04-10T05:14:06.581Z,40.44
2018-04-10T05:15:06.549Z,40.5
2018-04-10T05:16:06.611Z,40.39
2018-04-10T05:17:06.643Z,40.46
2018-04-10T05:18:06.546Z,40.45
2018-04-10T05:19:06.561Z,40.42
2018-04-10T05:20:06.577Z,40.46
2018-04-10T05:21:06.535Z,40.46
2018-04-10T05:22:06.647Z,40.46
2018-04-10T05:23:06.539Z,40.43
2018-04-10T05:24:06.575Z,40.52
2018-04-10T05:25:06.552Z,40.39
2018-04-10T05:26:06.587Z,40.41
2018-04-10T05:27:06.648Z,40.42
2018-04-10T05:28:06.532Z,40.37
2018-04-10T05:29:06.545Z,40.54
2018-04-10T05:30:06.535Z,40.44
2018-04-10T05:31:06.543Z,40.41
2018-04-10T05:32:06.529Z,40.4
2018-04-10T05:33:06.535Z,40.47
2018-04-10T05:34:06.563Z,40.43
2018-04-10T05:35:06.582Z,40.35
2018-04-10T05:36:06.544Z,40.4
2018-04-10T05:37:06.590Z,40.39
2018-04-10T05:38:06.577Z,40.42
2018-04-10T05:39:06.641Z,40.43
2018-04-10T05:40:06.644Z,40.37
2018-04-10T05:41:06.561Z,40.42
2018-04-10T05:42:06.563Z,40.41
2018-04-10T05:43:06.573Z,40.39
2018-04-10T05:44:06.562Z,40.42
2018-04-10T05:45:06.517Z,40.41
2018-04-10T05:46:06.547Z,40.36
2018-04-10T05:47:06.642Z,40.42
2018-04-10T05:48:06.820Z,40.43
2018-04-10T05:49:06.649Z,40.42
2018-04-10T05:50:06.548Z,40.61
2018-04-10T05:51:06.509Z,40.48
2018-04-10T05:52:06.607Z,40.46
2018-04-10T05:53:06.641Z,40.41
2018-04-10T05:54:06.529Z,40.45
2018-04-10T05:55:06.605Z,40.46
2018-04-10T05:56:06.609Z,40.49
2018-04-10T05:57:06.616Z,40.5
2018-04-10T05:58:06.640Z,40.4
2018-04-10T05:59:07.089Z,40.47
2018-04-10T06:00:09.391Z,40.49
2018-04-10T06:01:06.613Z,40.42
2018-04-10T06:02:09.271Z,40.45
2018-04-10T06:03:09.038Z,40.43
2018-04-10T06:04:06.584Z,40.41
2018-04-10T06:05:07.059Z,40.36
2018-04-10T06:06:09.063Z,40.46
2018-04-10T06:07:06.623Z,40.43
2018-04-10T06:08:06.588Z,40.47
2018-04-10T06:09:09.009Z,40.63
2018-04-10T06:10:06.614Z,40.48
2018-04-10T06:11:06.590Z,40.48
2018-04-10T06:12:09.017Z,40.59
2018-04-10T06:13:06.518Z,40.54
2018-04-10T06:14:06.720Z,40.46
2018-04-10T06:15:06.564Z,40.52
2018-04-10T06:16:06.527Z,40.49
2018-04-10T06:17:06.533Z,40.5
2018-04-10T06:18:06.539Z,40.61
2018-04-10T06:19:06.523Z,40.52
2018-04-10T06:20:06.511Z,40.5
2018-04-10T06:21:06.564Z,40.59
2018-04-10T06:22:06.532Z,40.43
2018-04-10T06:23:06.538Z,40.58
2018-04-10T06:24:06.595Z,40.56
2018-04-10T06:25:06.516Z,40.41
2018-04-10T06:26:06.503Z,40.57
2018-04-10T06:27:06.551Z,40.53
2018-04-10T06:28:06.598Z,40.46
2018-04-10T06:29:06.622Z,40.51
2018-04-10T06:30:06.494Z,40.5
2018-04-10T06:31:06.485Z,40.45
2018-04-10T06:32:06.528Z,40.58
2018-04-10T06:33:06.534Z,40.55
2018-04-10T06:34:06.558Z,40.43
2018-04-10T06:35:06.502Z,40.49
2018-04-10T06:36:06.570Z,40.53
2018-04-10T06:37:06.764Z,40.38
2018-04-10T06:38:06.508Z,40.47
2018-04-10T06:39:06.539Z,40.45
2018-04-10T06:40:06.505Z,40.48
2018-04-10T06:41:06.616Z,40.5
2018-04-10T06:42:06.554Z,40.46
2018-04-10T06:43:06.615Z,40.73
2018-04-10T06:44:06.521Z,40.61
2018-04-10T06:45:06.795Z,40.61
2018-04-10T06:46:06.561Z,40.72
2018-04-10T06:47:06.539Z,40.74
2018-04-10T06:48:06.550Z,40.7
2018-04-10T06:49:06.543Z,40.77
2018-04-10T06:50:06.628Z,40.74
2018-04-10T06:51:06.520Z,40.78
2018-04-10T06:52:06.509Z,40.7
2018-04-10T06:53:06.530Z,40.76
2018-04-10T06:54:06.578Z,40.83
2018-04-10T06:55:06.564Z,40.77
2018-04-10T06:56:06.512Z,40.77
2018-04-10T06:57:06.509Z,40.83
2018-04-10T06:58:06.579Z,40.71
2018-04-10T06:59:06.577Z,40.81
2018-04-10T07:00:06.570Z,40.92
2018-04-10T07:01:06.580Z,40.84
2018-04-10T07:02:06.537Z,40.95
2018-04-10T07:03:06.504Z,41.01
2018-04-10T07:04:06.745Z,40.87
2018-04-10T07:05:06.509Z,41.05
2018-04-10T07:06:06.521Z,41.05
2018-04-10T07:07:06.552Z,40.87
2018-04-10T07:08:06.535Z,41.03
2018-04-10T07:09:06.527Z,41.06
2018-04-10T07:10:06.503Z,40.95
2018-04-10T07:11:06.496Z,40.99
2018-04-10T07:12:06.654Z,41.15
2018-04-10T07:13:06.642Z,40.96
2018-04-10T07:14:06.552Z,41.14
2018-04-10T07:15:06.500Z,41.09
2018-04-10T07:16:06.532Z,41.03
2018-04-10T07:17:06.490Z,41.23
2018-04-10T07:18:06.531Z,41.26
2018-04-10T07:19:06.541Z,41.06
2018-04-10T07:20:06.568Z,41.14
2018-04-10T07:21:06.498Z,41.18
2018-04-10T07:22:06.496Z,41.05
2018-04-10T07:23:06.498Z,41.11
2018-04-10T07:24:06.763Z,41.18
2018-04-10T07:25:06.490Z,41.03
2018-04-10T07:26:06.892Z,41.15
2018-04-10T07:27:06.526Z,41.32
2018-04-10T07:28:06.726Z,40.95
2018-04-10T07:29:06.732Z,40.96
2018-04-10T07:30:06.522Z,41.01
2018-04-10T07:31:06.512Z,40.98
2018-04-10T07:32:06.704Z,41.06
2018-04-10T07:33:06.516Z,41.07
2018-04-10T07:34:06.672Z,40.89
2018-04-10T07:35:06.780Z,41.06
2018-04-10T07:36:06.596Z,41.08
2018-04-10T07:37:06.534Z,41.06
2018-04-10T07:38:06.483Z,41.19
2018-04-10T07:39:06.525Z,41.31
2018-04-10T07:40:06.572Z,41.2
2018-04-10T07:41:06.529Z,41.29
2018-04-10T07:42:06.499Z,41.37
2018-04-10T07:43:06.552Z,41.16
2018-04-10T07:44:06.551Z,41.38
2018-04-10T07:45:06.579Z,41.31
2018-04-10T07:46:06.601Z,41.23
2018-04-10T07:47:06.561Z,41.32
2018-04-10T07:48:06.796Z,41.31
2018-04-10T07:49:06.532Z,41.08
2018-04-10T07:50:06.488Z,41.27
2018-04-10T07:51:06.552Z,41.37
2018-04-10T07:52:06.473Z,41.2
2018-04-10T07:53:06.465Z,41.06
2018-04-10T07:54:06.501Z,41.01
2018-04-10T07:55:06.452Z,40.93
2018-04-10T07:56:06.563Z,41.04
2018-04-10T07:57:06.535Z,41.13
2018-04-10T07:58:06.566Z,40.99
2018-04-10T07:59:06.484Z,41.16
2018-04-10T08:00:06.556Z,41.1
2018-04-10T08:01:06.541Z,40.96
2018-04-10T08:02:06.465Z,41.09
2018-04-10T08:03:06.522Z,41.06
2018-04-10T08:04:06.499Z,40.9
2018-04-10T08:05:06.624Z,40.92
2018-04-10T08:06:06.509Z,41.03
2018-04-10T08:07:06.487Z,40.96
2018-04-10T08:08:06.490Z,41.17
2018-04-10T08:09:06.488Z,41.1
2018-04-10T08:10:06.480Z,40.98
2018-04-10T08:11:06.530Z,40.98
2018-04-10T08:12:06.508Z,41.04
2018-04-10T08:13:06.498Z,40.93
2018-04-10T08:14:06.499Z,41.02
2018-04-10T08:15:06.478Z,41.06
2018-04-10T08:16:06.552Z,40.91
2018-04-10T08:17:06.482Z,40.99
2018-04-10T08:18:06.492Z,41
2018-04-10T08:19:06.510Z,40.84
2018-04-10T08:20:06.475Z,41.01
2018-04-10T08:21:06.622Z,41.03
2018-04-10T08:22:06.499Z,40.89
2018-04-10T08:23:06.460Z,41.17
2018-04-10T08:24:06.574Z,41.14
2018-04-10T08:25:06.462Z,41.04
2018-04-10T08:26:06.495Z,41.15
2018-04-10T08:27:06.496Z,41.22
2018-04-10T08:28:06.507Z,41.05
2018-04-10T08:29:06.464Z,41.28
2018-04-10T08:30:06.488Z,41.32
2018-04-10T08:31:06.502Z,41.11
2018-04-10T08:32:06.481Z,41.31
2018-04-10T08:33:06.525Z,41.32
2018-04-10T08:34:06.455Z,41.23
2018-04-10T08:35:06.560Z,41.27
2018-04-10T08:36:06.491Z,41.54
2018-04-10T08:37:06.460Z,41.29
2018-04-10T08:38:06.468Z,41.37
2018-04-10T08:39:06.592Z,41.35
2018-04-10T08:40:06.455Z,41.27
2018-04-10T08:41:06.458Z,41.38
2018-04-10T08:42:06.555Z,41.38
2018-04-10T08:43:06.458Z,41.21
2018-04-10T08:44:06.496Z,41.36
2018-04-10T08:45:06.594Z,41.25
2018-04-10T08:46:06.506Z,41.03
2018-04-10T08:47:06.501Z,41.16
2018-04-10T08:48:06.443Z,41.41
2018-04-10T08:49:06.518Z,41.4
2018-04-10T08:50:06.519Z,41.51
2018-04-10T08:51:06.536Z,41.62
2018-04-10T08:52:06.494Z,41.4
2018-04-10T08:53:06.498Z,41.55
2018-04-10T08:54:06.735Z,41.51
2018-04-10T08:55:06.488Z,41.41
2018-04-10T08:56:06.582Z,41.5
2018-04-10T08:57:06.491Z,41.46
2018-04-10T08:58:06.904Z,41.4
2018-04-10T08:59:06.623Z,41.46
2018-04-10T09:00:06.503Z,41.53
2018-04-10T09:01:06.452Z,41.37
2018-04-10T09:02:06.501Z,41.53
2018-04-10T09:03:06.498Z,41.48
2018-04-10T09:04:06.483Z,41.4
2018-04-10T09:05:06.498Z,41.47
2018-04-10T09:06:06.556Z,41.51
2018-04-10T09:07:06.492Z,41.41
2018-04-10T09:08:06.483Z,41.48
2018-04-10T09:09:06.585Z,41.6
2018-04-10T09:10:06.481Z,41.37
2018-04-10T09:11:06.497Z,41.44
2018-04-10T09:12:06.498Z,41.43
2018-04-10T09:13:06.585Z,41.33
2018-04-10T09:14:06.584Z,41.51
2018-04-10T09:15:06.446Z,41.51
2018-04-10T09:16:06.488Z,41.51
2018-04-10T09:17:06.489Z,41.52
2018-04-10T09:18:06.465Z,41.49
2018-04-10T09:19:06.524Z,41.28
2018-04-10T09:20:06.450Z,41.35
2018-04-10T09:21:06.443Z,41.28
2018-04-10T09:22:06.524Z,41.3
2018-04-10T09:23:06.464Z,41.39
2018-04-10T09:24:06.440Z,41.42
2018-04-10T09:25:06.515Z,41.35
2018-04-10T09:26:06.464Z,41.34
2018-04-10T09:27:06.484Z,41.47
2018-04-10T09:28:06.571Z,41.28
2018-04-10T09:29:06.567Z,41.29
2018-04-10T09:30:06.451Z,41.42
2018-04-10T09:31:06.478Z,41.24
2018-04-10T09:32:06.510Z,41.28
2018-04-10T09:33:06.596Z,41.39
2018-04-10T09:34:06.483Z,41.21
2018-04-10T09:35:06.453Z,41.32
2018-04-10T09:36:06.449Z,41.38
2018-04-10T09:37:06.593Z,41.24
2018-04-10T09:38:06.482Z,41.21
2018-04-10T09:39:06.462Z,41.35
2018-04-10T09:40:06.440Z,41.12
2018-04-10T09:41:06.449Z,41.33
2018-04-10T09:42:06.450Z,41.37
2018-04-10T09:43:06.510Z,41.13
2018-04-10T09:44:06.492Z,41.27
2018-04-10T09:45:06.466Z,41.24
2018-04-10T09:46:06.447Z,41.14
2018-04-10T09:47:06.464Z,41.24
2018-04-10T09:48:06.443Z,41.19
2018-04-10T09:49:06.457Z,41.02
2018-04-10T09:50:06.460Z,41.1
2018-04-10T09:51:06.511Z,41.03
2018-04-10T09:52:06.459Z,40.99
2018-04-10T09:53:06.520Z,41.03
2018-04-10T09:54:06.438Z,41.1
2018-04-10T09:55:06.498Z,41.07
2018-04-10T09:56:06.488Z,41.01
2018-04-10T09:57:06.530Z,41.07
2018-04-10T09:58:06.492Z,40.99
2018-04-10T09:59:06.578Z,40.98
2018-04-10T10:00:06.438Z,41.1
2018-04-10T10:01:06.520Z,40.98
2018-04-10T10:02:06.491Z,41.04
2018-04-10T10:03:06.480Z,41.02
2018-04-10T10:04:06.433Z,40.93
2018-04-10T10:05:06.486Z,41.01
2018-04-10T10:06:06.454Z,40.99
2018-04-10T10:07:06.419Z,41
2018-04-10T10:08:06.520Z,41.04
2018-04-10T10:09:06.501Z,41.03
2018-04-10T10:10:06.454Z,40.94
2018-04-10T10:11:06.573Z,40.97
2018-04-10T10:12:06.483Z,40.98
2018-04-10T10:13:06.493Z,40.9
2018-04-10T10:14:06.471Z,40.94
2018-04-10T10:15:06.444Z,41.44
2018-04-10T10:16:06.466Z,41.65
2018-04-10T10:17:06.509Z,41.72
2018-04-10T10:18:06.490Z,41.93
2018-04-10T10:19:06.461Z,41.64
2018-04-10T10:20:06.485Z,41.86
2018-04-10T10:21:06.445Z,41.83
2018-04-10T10:22:06.458Z,41.69
2018-04-10T10:23:06.483Z,41.94
2018-04-10T10:24:06.430Z,42
2018-04-10T10:25:06.473Z,41.97
2018-04-10T10:26:06.460Z,42.16
2018-04-10T10:27:06.507Z,42.1
2018-04-10T10:28:06.468Z,41.92
2018-04-10T10:29:06.450Z,42.22
2018-04-10T10:30:06.467Z,42.23
2018-04-10T10:31:06.495Z,42.16
2018-04-10T10:32:06.628Z,42.14
2018-04-10T10:33:06.450Z,42.17
2018-04-10T10:34:06.455Z,41.98
2018-04-10T10:35:06.421Z,42.1
2018-04-10T10:36:06.483Z,42.26
2018-04-10T10:37:06.415Z,42.13
2018-04-10T10:38:06.560Z,42.34
2018-04-10T10:39:06.490Z,42.29
2018-04-10T10:40:06.543Z,42.14
2018-04-10T10:41:06.456Z,42.46
2018-04-10T10:42:06.479Z,42.34
2018-04-10T10:43:06.662Z,42.06
2018-04-10T10:44:06.485Z,42.25
2018-04-10T10:45:06.471Z,42.3
2018-04-10T10:46:06.474Z,42.14
2018-04-10T10:47:06.564Z,42.41
2018-04-10T10:48:06.478Z,42.23
2018-04-10T10:49:06.436Z,42.16
2018-04-10T10:50:06.436Z,42.39
2018-04-10T10:51:06.445Z,42.37
2018-04-10T10:52:06.428Z,42.17
2018-04-10T10:53:06.452Z,42.26
2018-04-10T10:54:06.447Z,42.39
2018-04-10T10:55:06.499Z,42.18
2018-04-10T10:56:06.436Z,42.33
2018-04-10T10:57:06.412Z,42.2
2018-04-10T10:58:06.545Z,41.75
2018-04-10T10:59:06.450Z,42.01
2018-04-10T11:00:06.417Z,42.03
2018-04-10T11:01:06.562Z,41.93
2018-04-10T11:02:06.451Z,42.11
2018-04-10T11:03:06.616Z,42.08
2018-04-10T11:04:06.474Z,41.93
2018-04-10T11:05:06.465Z,41.97
2018-04-10T11:06:06.436Z,42.19
2018-04-10T11:07:06.446Z,41.81
2018-04-10T11:08:06.485Z,41.96
2018-04-10T11:09:06.439Z,42.02
2018-04-10T11:10:06.582Z,41.67
2018-04-10T11:11:06.523Z,41.9
2018-04-10T11:12:06.475Z,41.99
2018-04-10T11:13:06.562Z,41.72
2018-04-10T11:14:06.534Z,41.89
2018-04-10T11:15:06.520Z,41.88
2018-04-10T11:16:06.529Z,41.6
2018-04-10T11:17:06.429Z,41.84
2018-04-10T11:18:06.472Z,41.84
2018-04-10T11:19:06.424Z,41.58
2018-04-10T11:20:06.408Z,41.73
2018-04-10T11:21:06.436Z,41.78
2018-04-10T11:22:06.442Z,41.53
2018-04-10T11:23:06.430Z,41.76
2018-04-10T11:24:06.407Z,41.75
2018-04-10T11:25:06.421Z,41.51
2018-04-10T11:26:06.432Z,41.71
2018-04-10T11:27:06.429Z,41.57
2018-04-10T11:28:06.416Z,41.43
2018-04-10T11:29:06.396Z,41.44
2018-04-10T11:30:06.430Z,41.44
2018-04-10T11:31:06.405Z,41.31
2018-04-10T11:32:06.435Z,41.37
2018-04-10T11:33:06.463Z,41.39
2018-04-10T11:34:06.415Z,41.27
2018-04-10T11:35:06.452Z,41.36
2018-04-10T11:36:06.430Z,41.29
2018-04-10T11:37:06.387Z,41.27
2018-04-10T11:38:06.625Z,41.69
2018-04-10T11:39:06.442Z,41.74
2018-04-10T11:40:06.417Z,41.81
2018-04-10T11:41:06.402Z,41.93
2018-04-10T11:42:06.412Z,41.8
2018-04-10T11:43:06.689Z,41.75
2018-04-10T11:44:06.423Z,41.82
2018-04-10T11:45:06.466Z,41.84
2018-04-10T11:46:06.411Z,41.63
2018-04-10T11:47:06.439Z,41.91
2018-04-10T11:48:06.439Z,41.94
2018-04-10T11:49:06.432Z,41.59
2018-04-10T11:50:06.388Z,41.94
2018-04-10T11:51:06.417Z,41.96
2018-04-10T11:52:06.464Z,41.76
2018-04-10T11:53:06.444Z,42.02
2018-04-10T11:54:06.463Z,41.83
2018-04-10T11:55:06.415Z,42.04
2018-04-10T11:56:06.408Z,41.88
2018-04-10T11:57:06.451Z,42.08
2018-04-10T11:58:06.389Z,41.75
2018-04-10T11:59:06.424Z,41.95
2018-04-10T12:00:06.409Z,42
2018-04-10T12:01:06.486Z,41.9
2018-04-10T12:02:06.429Z,41.98
2018-04-10T12:03:06.443Z,41.99
2018-04-10T12:04:06.472Z,41.83
2018-04-10T12:05:06.441Z,42.05
2018-04-10T12:06:06.427Z,42.05
2018-04-10T12:07:06.428Z,41.95
2018-04-10T12:08:06.395Z,42.08
2018-04-10T12:09:06.403Z,42.03
2018-04-10T12:10:06.458Z,41.81
2018-04-10T12:11:06.405Z,42.08
2018-04-10T12:12:06.391Z,42.13
2018-04-10T12:13:06.407Z,42.21
2018-04-10T12:14:06.418Z,42.16
2018-04-10T12:15:06.596Z,42.18
2018-04-10T12:16:06.442Z,41.96
2018-04-10T12:17:06.398Z,42.16
2018-04-10T12:18:06.393Z,42.13
2018-04-10T12:19:06.419Z,42.18
2018-04-10T12:20:06.436Z,42.04
2018-04-10T12:21:06.448Z,41.83
2018-04-10T12:22:06.401Z,41.79
2018-04-10T12:23:06.424Z,41.91
2018-04-10T12:24:06.368Z,41.88
2018-04-10T12:25:06.419Z,41.7
2018-04-10T12:26:06.438Z,41.89
2018-04-10T12:27:06.418Z,41.97
2018-04-10T12:28:06.388Z,41.72
2018-04-10T12:29:06.488Z,41.96
2018-04-10T12:30:06.450Z,41.96
2018-04-10T12:31:06.391Z,41.69
2018-04-10T12:32:06.439Z,41.94
2018-04-10T12:33:06.390Z,41.96
2018-04-10T12:34:06.414Z,41.61
2018-04-10T12:35:06.410Z,41.91
2018-04-10T12:36:06.358Z,41.88
2018-04-10T12:37:06.397Z,41.66
2018-04-10T12:38:06.377Z,41.82
2018-04-10T12:39:06.404Z,41.83
2018-04-10T12:40:06.414Z,41.57
2018-04-10T12:41:06.397Z,41.74
2018-04-10T12:42:06.399Z,41.91
2018-04-10T12:43:06.509Z,41.6
2018-04-10T12:44:06.412Z,41.75
2018-04-10T12:45:06.519Z,41.86
2018-04-10T12:46:06.405Z,41.55
2018-04-10T12:47:06.503Z,41.66
2018-04-10T12:48:06.407Z,41.57
2018-04-10T12:49:06.418Z,41.51
2018-04-10T12:50:06.452Z,41.49
2018-04-10T12:51:06.424Z,41.47
2018-04-10T12:52:06.403Z,41.35
2018-04-10T12:53:06.409Z,41.64
2018-04-10T12:54:06.453Z,41.83
2018-04-10T12:55:06.460Z,41.76